Fairview, Pennsylvania
Current Conditions -  °F | °C
As of 2:51 AM on Thursday 29 Jan 2015 (Local Time) from KERI Reporting Station
Overcast Overcast  
Wind Chill: 14°   Ceiling: 11000
Heat Index: 25°   Visibility: 10mi
Dew Point:   Wind: 12mph
Humidity: 46%   Direction: 180°S
Pressure: 30.17"   Gusts: NA
Location:  42.03°N, 80.25°W
Report Text: KERI 290751Z 18010KT 10SM OVC110 M04/M14 A3017 RMK AO2 SLP229 T10391139
Loading
Personal Weather Stations






























Interactive Weather Map New forecast layout! Learn more

10-Day Weather Forecast

Advertisements
Track Severe Weather on mobile